createdAt,value
2018-02-05T00:00:36.181Z,1.31
2018-02-05T00:02:04.255Z,1.31
2018-02-05T00:03:30.326Z,1.31
2018-02-05T00:04:58.563Z,1.31
2018-02-05T00:06:25.841Z,1.30
2018-02-05T00:07:52.784Z,1.32
2018-02-05T00:09:19.982Z,1.33
2018-02-05T00:10:45.901Z,1.33
2018-02-05T00:12:13.202Z,1.33
2018-02-05T00:13:41.144Z,1.33
2018-02-05T00:15:08.265Z,1.32
2018-02-05T00:16:34.017Z,1.32
2018-02-05T00:18:02.218Z,1.32
2018-02-05T00:19:29.040Z,1.31
2018-02-05T00:20:55.315Z,1.31
2018-02-05T00:22:22.199Z,1.31
2018-02-05T00:23:49.408Z,1.31
2018-02-05T00:25:17.556Z,1.29
2018-02-05T00:26:43.606Z,1.28
2018-02-05T00:28:11.614Z,1.29
2018-02-05T00:29:37.693Z,1.30
2018-02-05T00:31:05.655Z,1.30
2018-02-05T00:32:31.561Z,1.31
2018-02-05T00:33:58.697Z,1.31
2018-02-05T00:35:26.813Z,1.30
2018-02-05T00:36:53.962Z,1.30
2018-02-05T00:38:21.230Z,1.30
2018-02-05T00:39:48.513Z,1.30
2018-02-05T00:41:14.499Z,1.29
2018-02-05T00:42:42.761Z,1.29
2018-02-05T00:44:09.792Z,1.30
2018-02-05T00:45:35.776Z,1.29
2018-02-05T00:47:02.889Z,1.30
2018-02-05T00:48:31.123Z,1.30
2018-02-05T00:49:58.104Z,1.31
2018-02-05T00:51:24.254Z,1.30
2018-02-05T00:52:51.426Z,1.30
2018-02-05T00:54:19.201Z,1.30
2018-02-05T00:55:45.488Z,1.31
2018-02-05T00:57:12.502Z,1.30
2018-02-05T00:58:39.368Z,1.30
2018-02-05T01:00:06.523Z,1.31
2018-02-05T01:01:34.601Z,1.30
2018-02-05T01:03:00.839Z,1.30
2018-02-05T01:04:28.004Z,1.30
2018-02-05T01:05:54.873Z,1.29
2018-02-05T01:07:22.069Z,1.28
2018-02-05T01:08:50.220Z,1.27
2018-02-05T01:10:17.431Z,1.28
2018-02-05T01:11:44.454Z,1.27
2018-02-05T01:13:11.548Z,1.26
2018-02-05T01:14:37.527Z,1.26
2018-02-05T01:16:04.761Z,1.26
2018-02-05T01:17:31.920Z,1.26
2018-02-05T01:18:59.906Z,1.26
2018-02-05T01:20:26.238Z,1.25
2018-02-05T01:21:54.239Z,1.23
2018-02-05T01:23:20.554Z,1.23
2018-02-05T01:24:47.459Z,1.24
2018-02-05T01:26:14.467Z,1.23
2018-02-05T01:27:41.445Z,1.24
2018-02-05T01:29:09.586Z,1.25
2018-02-05T01:30:36.450Z,1.26
2018-02-05T01:32:03.587Z,1.24
2018-02-05T01:33:30.984Z,1.24
2018-02-05T01:34:57.176Z,1.23
2018-02-05T01:36:25.326Z,1.22
2018-02-05T01:37:52.227Z,1.21
2018-02-05T01:39:18.329Z,1.18
2018-02-05T01:40:46.194Z,1.17
2018-02-05T01:42:13.332Z,1.16
2018-02-05T01:43:39.405Z,1.15
2018-02-05T01:45:07.292Z,1.14
2018-02-05T01:46:34.559Z,1.13
2018-02-05T01:48:00.680Z,1.12
2018-02-05T01:49:27.929Z,1.10
2018-02-05T01:50:55.014Z,1.10
2018-02-05T01:52:22.236Z,1.08
2018-02-05T01:53:49.356Z,1.06
2018-02-05T01:55:17.310Z,1.05
2018-02-05T01:56:44.465Z,1.03
2018-02-05T01:58:10.513Z,1.00
2018-02-05T01:59:38.378Z,0.98
2018-02-05T02:01:05.165Z,0.95
2018-02-05T02:02:32.368Z,0.95
2018-02-05T02:03:58.666Z,0.95
2018-02-05T02:05:26.575Z,0.96
2018-02-05T02:06:53.655Z,0.97
2018-02-05T02:08:19.756Z,0.98
2018-02-05T02:09:48.109Z,0.99
2018-02-05T02:11:15.252Z,1.01
2018-02-05T02:12:41.294Z,1.00
2018-02-05T02:14:09.467Z,1.01
2018-02-05T02:15:36.213Z,1.03
2018-02-05T02:17:05.159Z,1.03
2018-02-05T02:18:30.274Z,1.03
2018-02-05T02:19:57.262Z,1.05
2018-02-05T02:21:23.387Z,1.05
2018-02-05T02:22:51.559Z,1.05
2018-02-05T02:24:17.920Z,1.06
2018-02-05T02:25:45.001Z,1.06
2018-02-05T02:27:12.244Z,1.06
2018-02-05T02:28:40.447Z,1.07
2018-02-05T02:30:07.311Z,1.06
2018-02-05T02:31:34.476Z,1.05
2018-02-05T02:33:00.595Z,1.05
2018-02-05T02:34:28.627Z,1.05
2018-02-05T02:35:55.658Z,1.05
2018-02-05T02:37:22.650Z,1.05
2018-02-05T02:38:49.862Z,1.05
2018-02-05T02:40:17.005Z,1.03
2018-02-05T02:41:44.014Z,1.02
2018-02-05T02:43:11.200Z,1.01
2018-02-05T02:44:38.141Z,0.99
2018-02-05T02:46:04.009Z,0.98
2018-02-05T02:47:31.009Z,0.94
2018-02-05T02:48:58.073Z,0.90
2018-02-05T02:50:25.151Z,0.90
2018-02-05T02:51:52.231Z,0.88
2018-02-05T02:53:20.143Z,0.88
2018-02-05T02:54:47.352Z,0.87
2018-02-05T02:56:13.563Z,0.87
2018-02-05T02:57:41.627Z,0.86
2018-02-05T02:59:07.750Z,0.85
2018-02-05T03:00:35.731Z,0.84
2018-02-05T03:02:02.882Z,0.84
2018-02-05T03:03:28.895Z,0.82
2018-02-05T03:04:56.889Z,0.80
2018-02-05T03:06:22.949Z,0.80
2018-02-05T03:07:51.117Z,0.79
2018-02-05T03:09:17.302Z,0.77
2018-02-05T03:10:44.233Z,0.77
2018-02-05T03:12:12.433Z,0.78
2018-02-05T03:13:39.530Z,0.77
2018-02-05T03:15:05.469Z,0.75
2018-02-05T03:16:32.567Z,0.75
2018-02-05T03:17:59.502Z,0.73
2018-02-05T03:19:27.684Z,0.71
2018-02-05T03:20:53.831Z,0.70
2018-02-05T03:22:20.952Z,0.69
2018-02-05T03:23:49.177Z,0.69
2018-02-05T03:25:16.191Z,0.68
2018-02-05T03:26:42.172Z,0.68
2018-02-05T03:28:10.351Z,0.68
2018-02-05T03:29:37.372Z,0.66
2018-02-05T03:31:04.553Z,0.65
2018-02-05T03:32:31.786Z,0.64
2018-02-05T03:33:58.792Z,0.64
2018-02-05T03:35:24.866Z,0.63
2018-02-05T03:36:53.108Z,0.61
2018-02-05T03:38:19.221Z,0.59
2018-02-05T03:39:47.292Z,0.60
2018-02-05T03:41:14.534Z,0.59
2018-02-05T03:42:41.541Z,0.60
2018-02-05T03:44:08.620Z,0.59
2018-02-05T03:45:35.657Z,0.60
2018-02-05T03:47:01.684Z,0.60
2018-02-05T03:48:29.702Z,0.60
2018-02-05T03:49:55.933Z,0.61
2018-02-05T03:51:24.090Z,0.60
2018-02-05T03:52:51.242Z,0.61
2018-02-05T03:54:18.345Z,0.60
2018-02-05T03:55:44.537Z,0.60
2018-02-05T03:57:12.631Z,0.60
2018-02-05T03:58:39.753Z,0.60
2018-02-05T04:00:05.670Z,0.60
2018-02-05T04:01:32.937Z,0.61
2018-02-05T04:03:01.255Z,0.61
2018-02-05T04:04:27.292Z,0.61
2018-02-05T04:05:55.453Z,0.61
2018-02-05T04:07:22.294Z,0.62
2018-02-05T04:08:49.401Z,0.62
2018-02-05T04:10:15.486Z,0.63
2018-02-05T04:11:43.361Z,0.63
2018-02-05T04:13:10.667Z,0.64
2018-02-05T04:14:36.592Z,0.65
2018-02-05T04:16:03.562Z,0.65
2018-02-05T04:17:31.341Z,0.66
2018-02-05T04:18:58.692Z,0.67
2018-02-05T04:20:25.496Z,0.68
2018-02-05T04:21:52.860Z,0.67
2018-02-05T04:23:19.793Z,0.68
2018-02-05T04:24:46.788Z,0.69
2018-02-05T04:26:13.004Z,0.68
2018-02-05T04:27:40.066Z,0.69
2018-02-05T04:29:08.011Z,0.70
2018-02-05T04:30:33.973Z,0.71
2018-02-05T04:32:01.024Z,0.70
2018-02-05T04:33:28.915Z,0.70
2018-02-05T04:34:56.134Z,0.69
2018-02-05T04:36:21.984Z,0.69
2018-02-05T04:37:49.180Z,0.70
2018-02-05T04:39:16.038Z,0.70
2018-02-05T04:40:43.336Z,0.71
2018-02-05T04:42:10.532Z,0.70
2018-02-05T04:43:38.550Z,0.71
2018-02-05T04:45:05.475Z,0.71
2018-02-05T04:46:31.554Z,0.71
2018-02-05T04:47:59.643Z,0.70
2018-02-05T04:49:26.767Z,0.70
2018-02-05T04:50:53.822Z,0.69
2018-02-05T04:52:19.856Z,0.68
2018-02-05T04:53:46.745Z,0.67
2018-02-05T04:55:14.850Z,0.66
2018-02-05T04:56:41.887Z,0.66
2018-02-05T04:58:08.911Z,0.66
2018-02-05T04:59:35.676Z,0.66
2018-02-05T05:01:01.771Z,0.65
2018-02-05T05:02:29.644Z,0.65
2018-02-05T05:03:56.469Z,0.65
2018-02-05T05:05:22.318Z,0.66
2018-02-05T05:06:50.297Z,0.67
2018-02-05T05:08:16.183Z,0.67
2018-02-05T05:09:44.295Z,0.67
2018-02-05T05:11:11.298Z,0.67
2018-02-05T05:12:37.301Z,0.66
2018-02-05T05:14:05.451Z,0.66
2018-02-05T05:15:32.220Z,0.66
2018-02-05T05:16:59.347Z,0.67
2018-02-05T05:18:25.552Z,0.67
2018-02-05T05:19:52.375Z,0.67
2018-02-05T05:21:20.411Z,0.66
2018-02-05T05:22:46.429Z,0.66
2018-02-05T05:24:14.648Z,0.67
2018-02-05T05:25:40.651Z,0.67
2018-02-05T05:27:07.729Z,0.67
2018-02-05T05:28:34.645Z,0.66
2018-02-05T05:30:01.661Z,0.66
2018-02-05T05:31:29.669Z,0.66
2018-02-05T05:32:55.740Z,0.66
2018-02-05T05:34:23.832Z,0.68
2018-02-05T05:35:51.022Z,0.67
2018-02-05T05:37:18.083Z,0.67
2018-02-05T05:38:44.976Z,0.66
2018-02-05T05:40:11.944Z,0.67
2018-02-05T05:41:37.985Z,0.67
2018-02-05T05:43:04.744Z,0.67
2018-02-05T05:44:31.939Z,0.67
2018-02-05T05:45:58.650Z,0.66
2018-02-05T05:47:25.728Z,0.67
2018-02-05T05:48:52.790Z,0.66
2018-02-05T05:50:20.173Z,0.65
2018-02-05T05:51:48.265Z,0.65
2018-02-05T05:53:15.215Z,0.65
2018-02-05T05:54:42.332Z,0.65
2018-02-05T05:56:08.422Z,0.66
2018-02-05T05:57:35.172Z,0.67
2018-02-05T05:59:03.422Z,0.66
2018-02-05T06:00:30.484Z,0.66
2018-02-05T06:01:57.257Z,0.65
2018-02-05T06:03:24.315Z,0.63
2018-02-05T06:04:51.561Z,0.63
2018-02-05T06:06:17.523Z,0.63
2018-02-05T06:07:45.523Z,0.62
2018-02-05T06:09:12.529Z,0.62
2018-02-05T06:10:38.431Z,0.62
2018-02-05T06:12:06.368Z,0.60
2018-02-05T06:13:33.569Z,0.60
2018-02-05T06:14:59.478Z,0.60
2018-02-05T06:16:26.483Z,0.60
2018-02-05T06:17:54.399Z,0.59
2018-02-05T06:19:20.745Z,0.60
2018-02-05T06:20:48.858Z,0.60
2018-02-05T06:22:16.063Z,0.60
2018-02-05T06:23:43.105Z,0.60
2018-02-05T06:25:08.910Z,0.60
2018-02-05T06:26:35.773Z,0.59
2018-02-05T06:28:03.671Z,0.59
2018-02-05T06:29:29.909Z,0.59
2018-02-05T06:30:57.863Z,0.59
2018-02-05T06:32:24.079Z,0.59
2018-02-05T06:33:51.254Z,0.59
2018-02-05T06:35:19.385Z,0.58
2018-02-05T06:36:45.352Z,0.57
2018-02-05T06:38:13.479Z,0.58
2018-02-05T06:39:40.518Z,0.57
2018-02-05T06:41:06.421Z,0.58
2018-02-05T06:42:34.483Z,0.58
2018-02-05T06:44:01.462Z,0.58
2018-02-05T06:45:28.605Z,0.56
2018-02-05T06:46:55.606Z,0.55
2018-02-05T06:48:22.699Z,0.55
2018-02-05T06:49:48.928Z,0.56
2018-02-05T06:51:16.087Z,0.56
2018-02-05T06:52:44.148Z,0.55
2018-02-05T06:54:10.364Z,0.55
2018-02-05T06:55:38.375Z,0.55
2018-02-05T06:57:05.030Z,0.55
2018-02-05T06:58:32.010Z,0.55
2018-02-05T06:59:58.879Z,0.56
2018-02-05T07:01:24.937Z,0.55
2018-02-05T07:02:53.143Z,0.55
2018-02-05T07:04:19.264Z,0.54
2018-02-05T07:05:47.302Z,0.55
2018-02-05T07:07:13.270Z,0.51
2018-02-05T07:08:41.199Z,0.52
2018-02-05T07:10:08.312Z,0.51
2018-02-05T07:11:34.519Z,0.51
2018-02-05T07:13:01.480Z,0.49
2018-02-05T07:14:28.480Z,0.49
2018-02-05T07:15:56.696Z,0.49
2018-02-05T07:17:23.505Z,0.48
2018-02-05T07:18:50.717Z,0.48
2018-02-05T07:20:16.944Z,0.49
2018-02-05T07:21:43.907Z,0.48
2018-02-05T07:23:11.147Z,0.49
2018-02-05T07:24:39.047Z,0.48
2018-02-05T07:26:06.202Z,0.47
2018-02-05T07:27:32.255Z,0.47
2018-02-05T07:29:00.473Z,0.45
2018-02-05T07:30:27.477Z,0.44
2018-02-05T07:31:54.484Z,0.42
2018-02-05T07:33:20.670Z,0.39
2018-02-05T07:34:48.637Z,0.38
2018-02-05T07:36:15.511Z,0.36
2018-02-05T07:37:42.685Z,0.34
2018-02-05T07:39:09.655Z,0.32
2018-02-05T07:40:36.817Z,0.30
2018-02-05T07:42:02.846Z,0.26
2018-02-05T07:43:30.671Z,0.25
2018-02-05T07:44:56.710Z,0.23
2018-02-05T07:46:24.878Z,0.20
2018-02-05T07:47:51.994Z,0.17
2018-02-05T07:49:18.098Z,0.13
2018-02-05T07:50:46.196Z,0.11
2018-02-05T07:52:12.345Z,0.06
2018-02-05T07:53:40.427Z,0.03
2018-02-05T07:55:07.257Z,-0.01
2018-02-05T07:56:33.445Z,-0.03
2018-02-05T07:58:06.580Z,-0.05
2018-02-05T07:59:28.635Z,-0.05
2018-02-05T08:00:55.811Z,-0.05
2018-02-05T08:02:21.983Z,-0.05
2018-02-05T08:03:50.011Z,-0.05
2018-02-05T08:05:16.993Z,-0.05
2018-02-05T08:06:45.954Z,-0.04
2018-02-05T08:08:10.718Z,-0.01
2018-02-05T08:09:37.771Z,0.00
2018-02-05T08:11:03.680Z,0.00
2018-02-05T08:12:30.863Z,0.01
2018-02-05T08:13:57.949Z,0.02
2018-02-05T08:15:25.749Z,0.01
2018-02-05T08:16:52.407Z,0.00
2018-02-05T08:18:19.540Z,-0.01
2018-02-05T08:19:45.603Z,-0.02
2018-02-05T08:21:12.807Z,-0.03
2018-02-05T08:22:40.009Z,-0.05
2018-02-05T08:24:06.840Z,-0.06
2018-02-05T08:25:34.735Z,-0.07
2018-02-05T08:27:01.713Z,-0.07
2018-02-05T08:28:27.803Z,-0.07
2018-02-05T08:29:54.876Z,-0.08
2018-02-05T08:31:21.873Z,-0.10
2018-02-05T08:32:49.996Z,-0.12
2018-02-05T08:34:16.967Z,-0.12
2018-02-05T08:35:42.991Z,-0.11
2018-02-05T08:37:10.150Z,-0.11
2018-02-05T08:38:37.944Z,-0.08
2018-02-05T08:40:05.171Z,-0.06
2018-02-05T08:41:31.286Z,-0.04
2018-02-05T08:42:59.331Z,-0.02
2018-02-05T08:44:25.392Z,0.00
2018-02-05T08:45:52.437Z,0.03
2018-02-05T08:47:20.364Z,0.05
2018-02-05T08:48:46.482Z,0.07
2018-02-05T08:50:14.496Z,0.10
2018-02-05T08:51:40.860Z,0.13
2018-02-05T08:53:08.852Z,0.15
2018-02-05T08:54:35.850Z,0.17
2018-02-05T08:56:02.839Z,0.19
2018-02-05T08:57:29.021Z,0.21
2018-02-05T08:58:56.916Z,0.21
2018-02-05T09:00:24.062Z,0.23
2018-02-05T09:01:51.373Z,0.24
2018-02-05T09:03:18.693Z,0.26
2018-02-05T09:04:45.710Z,0.28
2018-02-05T09:06:11.956Z,0.29
2018-02-05T09:07:40.066Z,0.30
2018-02-05T09:09:07.190Z,0.31
2018-02-05T09:10:34.142Z,0.34
2018-02-05T09:12:01.234Z,0.36
2018-02-05T09:13:27.482Z,0.38
2018-02-05T09:14:55.469Z,0.39
2018-02-05T09:16:22.510Z,0.41
2018-02-05T09:17:48.657Z,0.43
2018-02-05T09:19:16.812Z,0.43
2018-02-05T09:20:43.862Z,0.44
2018-02-05T09:22:10.977Z,0.46
2018-02-05T09:23:37.865Z,0.50
2018-02-05T09:25:05.035Z,0.53
2018-02-05T09:26:32.211Z,0.55
2018-02-05T09:27:59.354Z,0.58
2018-02-05T09:29:26.522Z,0.59
2018-02-05T09:30:52.574Z,0.61
2018-02-05T09:32:20.836Z,0.61
2018-02-05T09:33:48.142Z,0.62
2018-02-05T09:35:14.465Z,0.63
2018-02-05T09:36:42.166Z,0.64
2018-02-05T09:38:09.378Z,0.64
2018-02-05T09:39:36.399Z,0.64
2018-02-05T09:41:02.218Z,0.64
2018-02-05T09:42:29.241Z,0.66
2018-02-05T09:43:56.267Z,0.68
2018-02-05T09:45:23.322Z,0.70
2018-02-05T09:46:51.255Z,0.73
2018-02-05T09:48:17.273Z,0.75
2018-02-05T09:49:45.242Z,0.77
2018-02-05T09:51:12.352Z,0.79
2018-02-05T09:52:39.275Z,0.80
2018-02-05T09:54:05.188Z,0.81
2018-02-05T09:55:33.009Z,0.81
2018-02-05T09:56:59.331Z,0.83
2018-02-05T09:58:27.206Z,0.85
2018-02-05T09:59:54.311Z,0.86
2018-02-05T10:01:21.277Z,0.87
2018-02-05T10:02:48.479Z,0.89
2018-02-05T10:04:14.750Z,0.89
2018-02-05T10:05:42.619Z,0.89
2018-02-05T10:07:08.583Z,0.89
2018-02-05T10:08:35.519Z,0.89
2018-02-05T10:10:03.640Z,0.90
2018-02-05T10:11:29.858Z,0.91
2018-02-05T10:12:57.795Z,0.93
2018-02-05T10:14:24.073Z,0.95
2018-02-05T10:15:52.275Z,0.95
2018-02-05T10:17:19.242Z,0.95
2018-02-05T10:18:46.020Z,0.97
2018-02-05T10:20:12.220Z,1.00
2018-02-05T10:21:39.294Z,1.03
2018-02-05T10:23:06.259Z,1.04
2018-02-05T10:24:33.306Z,1.06
2018-02-05T10:26:00.459Z,1.06
2018-02-05T10:27:27.533Z,1.08
2018-02-05T10:28:55.482Z,1.10
2018-02-05T10:30:22.658Z,1.13
2018-02-05T10:31:49.599Z,1.15
2018-02-05T10:33:16.216Z,1.17
2018-02-05T10:34:43.438Z,1.17
2018-02-05T10:36:10.482Z,1.17
2018-02-05T10:37:36.160Z,1.17
2018-02-05T10:39:04.063Z,1.18
2018-02-05T10:40:30.036Z,1.21
2018-02-05T10:41:58.207Z,1.23
2018-02-05T10:43:25.462Z,1.24
2018-02-05T10:44:51.544Z,1.26
2018-02-05T10:46:18.165Z,1.29
2018-02-05T10:47:46.287Z,1.30
2018-02-05T10:49:12.559Z,1.31
2018-02-05T10:50:39.622Z,1.34
2018-02-05T10:52:07.649Z,1.39
2018-02-05T10:53:34.978Z,1.42
2018-02-05T10:55:02.173Z,1.41
2018-02-05T10:56:29.280Z,1.43
2018-02-05T10:57:56.444Z,1.46
2018-02-05T10:59:23.656Z,1.48
2018-02-05T11:00:50.698Z,1.50
2018-02-05T11:02:17.945Z,1.51
2018-02-05T11:03:43.980Z,1.52
2018-02-05T11:05:11.092Z,1.52
2018-02-05T11:06:38.330Z,1.52
2018-02-05T11:08:05.322Z,1.53
2018-02-05T11:09:32.560Z,1.55
2018-02-05T11:10:59.753Z,1.54
2018-02-05T11:12:26.890Z,1.53
2018-02-05T11:13:53.977Z,1.49
2018-02-05T11:15:21.850Z,1.47
2018-02-05T11:16:48.938Z,1.48
2018-02-05T11:18:15.884Z,1.49
2018-02-05T11:19:43.009Z,1.53
2018-02-05T11:21:10.127Z,1.54
2018-02-05T11:22:37.120Z,1.54
2018-02-05T11:24:03.103Z,1.52
2018-02-05T11:25:31.125Z,1.52
2018-02-05T11:26:57.394Z,1.50
2018-02-05T11:28:25.285Z,1.51
2018-02-05T11:29:51.624Z,1.55
2018-02-05T11:31:18.773Z,1.58
2018-02-05T11:32:46.815Z,1.59
2018-02-05T11:34:13.871Z,1.60
2018-02-05T11:35:40.974Z,1.63
2018-02-05T11:37:08.126Z,1.65
2018-02-05T11:38:35.270Z,1.63
2018-02-05T11:40:02.330Z,1.64
2018-02-05T11:41:29.324Z,1.66
2018-02-05T11:42:56.399Z,1.69
2018-02-05T11:44:22.764Z,1.71
2018-02-05T11:45:49.772Z,1.69
2018-02-05T11:47:17.193Z,1.69
2018-02-05T11:48:45.204Z,1.71
2018-02-05T11:50:11.157Z,1.73
2018-02-05T11:51:38.200Z,1.73
2018-02-05T11:53:05.027Z,1.68
2018-02-05T11:54:32.124Z,1.63
2018-02-05T11:55:59.126Z,1.61
2018-02-05T11:57:26.319Z,1.60
2018-02-05T11:58:54.403Z,1.61
2018-02-05T12:00:20.436Z,1.59
2018-02-05T12:01:48.597Z,1.60
2018-02-05T12:03:14.769Z,1.62
2018-02-05T12:04:42.848Z,1.61
2018-02-05T12:06:09.960Z,1.61
2018-02-05T12:07:35.867Z,1.60
2018-02-05T12:09:03.031Z,1.62
2018-02-05T12:10:31.334Z,1.61
2018-02-05T12:11:58.409Z,1.60
2018-02-05T12:13:25.453Z,1.61
2018-02-05T12:14:52.718Z,1.59
2018-02-05T12:16:18.850Z,1.59
2018-02-05T12:17:45.884Z,1.57
2018-02-05T12:19:13.069Z,1.56
2018-02-05T12:20:41.228Z,1.53
2018-02-05T12:22:07.456Z,1.54
2018-02-05T12:23:34.290Z,1.55
2018-02-05T12:25:02.453Z,1.59
2018-02-05T12:26:28.534Z,1.55
2018-02-05T12:27:55.676Z,1.52
2018-02-05T12:29:22.810Z,1.49
2018-02-05T12:30:50.952Z,1.44
2018-02-05T12:32:18.075Z,1.41
2018-02-05T12:33:45.287Z,1.37
2018-02-05T12:35:12.421Z,1.31
2018-02-05T12:36:38.558Z,1.27
2018-02-05T12:38:06.466Z,1.22
2018-02-05T12:39:32.785Z,1.22
2018-02-05T12:40:59.775Z,1.20
2018-02-05T12:42:27.904Z,1.21
2018-02-05T12:43:54.138Z,1.26
2018-02-05T12:45:22.228Z,1.24
2018-02-05T12:46:48.457Z,1.26
2018-02-05T12:48:15.621Z,1.27
2018-02-05T12:49:42.669Z,1.31
2018-02-05T12:51:09.941Z,1.33
2018-02-05T12:52:37.093Z,1.36
2018-02-05T12:54:05.228Z,1.39
2018-02-05T12:55:32.269Z,1.42
2018-02-05T12:56:59.448Z,1.45
2018-02-05T12:58:25.534Z,1.49
2018-02-05T12:59:52.647Z,1.56
2018-02-05T13:01:19.912Z,1.58
2018-02-05T13:02:47.955Z,1.55
2018-02-05T13:04:15.139Z,1.57
2018-02-05T13:05:41.414Z,1.58
2018-02-05T13:07:08.532Z,1.60
2018-02-05T13:08:36.418Z,1.64
2018-02-05T13:10:05.347Z,1.73
2018-02-05T13:11:29.597Z,1.83
2018-02-05T13:12:56.769Z,1.95
2018-02-05T13:14:23.830Z,2.09
2018-02-05T13:15:51.075Z,2.18
2018-02-05T13:17:18.156Z,2.29
2018-02-05T13:18:46.040Z,2.42
2018-02-05T13:20:12.991Z,2.54
2018-02-05T13:21:40.176Z,2.58
2018-02-05T13:23:06.147Z,2.65
2018-02-05T13:24:33.154Z,2.66
2018-02-05T13:26:00.382Z,2.68
2018-02-05T13:27:28.674Z,2.66
2018-02-05T13:28:54.853Z,2.69
2018-02-05T13:30:21.986Z,2.64
2018-02-05T13:31:49.215Z,2.60
2018-02-05T13:33:16.314Z,2.61
2018-02-05T13:34:44.218Z,2.62
2018-02-05T13:36:10.191Z,2.62
2018-02-05T13:37:37.386Z,2.62
2018-02-05T13:39:05.301Z,2.62
2018-02-05T13:40:32.463Z,2.63
2018-02-05T13:41:58.754Z,2.69
2018-02-05T13:43:26.925Z,2.75
2018-02-05T13:44:53.030Z,2.83
2018-02-05T13:46:20.332Z,2.89
2018-02-05T13:47:47.583Z,2.88
2018-02-05T13:49:14.707Z,2.90
2018-02-05T13:50:41.593Z,2.82
2018-02-05T13:52:10.022Z,2.69
2018-02-05T13:53:35.874Z,2.60
2018-02-05T13:55:02.976Z,2.55
2018-02-05T13:56:31.004Z,2.47
2018-02-05T13:57:58.253Z,2.36
2018-02-05T13:59:25.568Z,2.25
2018-02-05T14:00:51.766Z,2.12
2018-02-05T14:02:18.919Z,2.04
2018-02-05T14:03:47.137Z,1.95
2018-02-05T14:05:13.200Z,1.91
2018-02-05T14:06:41.148Z,1.84
2018-02-05T14:08:07.373Z,1.77
2018-02-05T14:09:34.449Z,1.70
2018-02-05T14:11:01.752Z,1.63
2018-02-05T14:12:31.987Z,1.61
2018-02-05T14:13:55.976Z,1.59
2018-02-05T14:15:24.050Z,1.55
2018-02-05T14:16:50.984Z,1.55
2018-02-05T14:18:17.377Z,1.54
2018-02-05T14:19:45.679Z,1.51
2018-02-05T14:21:11.751Z,1.47
2018-02-05T14:22:38.924Z,1.47
2018-02-05T14:24:06.956Z,1.46
2018-02-05T14:25:33.204Z,1.45
2018-02-05T14:27:01.182Z,1.44
2018-02-05T14:28:28.316Z,1.44
2018-02-05T14:29:55.418Z,1.45
2018-02-05T14:31:22.654Z,1.45
2018-02-05T14:32:48.820Z,1.43
2018-02-05T14:34:15.966Z,1.41
2018-02-05T14:35:44.165Z,1.40
2018-02-05T14:37:10.272Z,1.37
2018-02-05T14:38:37.288Z,1.33
2018-02-05T14:40:05.675Z,1.32
2018-02-05T14:41:32.510Z,1.32
2018-02-05T14:42:59.570Z,1.30
2018-02-05T14:44:26.814Z,1.28
2018-02-05T14:45:53.036Z,1.26
2018-02-05T14:47:20.167Z,1.25
2018-02-05T14:48:48.271Z,1.21
2018-02-05T14:50:14.228Z,1.21
2018-02-05T14:51:41.638Z,1.20
2018-02-05T14:53:08.786Z,1.21
2018-02-05T14:54:36.781Z,1.21
2018-02-05T14:56:02.834Z,1.21
2018-02-05T14:57:31.003Z,1.23
2018-02-05T14:58:58.104Z,1.24
2018-02-05T15:00:25.439Z,1.23
2018-02-05T15:01:52.494Z,1.23
2018-02-05T15:03:19.603Z,1.21
2018-02-05T15:04:45.914Z,1.22
2018-02-05T15:06:12.997Z,1.24
2018-02-05T15:07:40.914Z,1.27
2018-02-05T15:09:07.167Z,1.22
2018-02-05T15:10:35.133Z,1.19
2018-02-05T15:12:01.304Z,1.13
2018-02-05T15:13:29.464Z,1.07
2018-02-05T15:14:55.666Z,1.06
2018-02-05T15:16:22.952Z,1.05
2018-02-05T15:17:50.859Z,1.03
2018-02-05T15:19:17.181Z,1.02
2018-02-05T15:20:45.379Z,1.00
2018-02-05T15:22:12.268Z,1.00
2018-02-05T15:23:38.536Z,1.02
2018-02-05T15:25:06.578Z,1.04
2018-02-05T15:26:33.675Z,1.04
2018-02-05T15:28:00.928Z,1.04
2018-02-05T15:29:27.069Z,1.08
2018-02-05T15:30:55.069Z,1.07
2018-02-05T15:32:22.361Z,1.08
2018-02-05T15:33:48.509Z,1.08
2018-02-05T15:35:15.772Z,1.07
2018-02-05T15:36:42.878Z,1.07
2018-02-05T15:38:09.783Z,1.11
2018-02-05T15:39:36.863Z,1.10
2018-02-05T15:41:05.153Z,1.02
2018-02-05T15:42:32.277Z,0.99
2018-02-05T15:43:58.343Z,1.00
2018-02-05T15:45:26.478Z,1.03
2018-02-05T15:46:52.637Z,1.02
2018-02-05T15:48:20.647Z,1.00
2018-02-05T15:49:46.804Z,1.01
2018-02-05T15:51:14.946Z,1.02
2018-02-05T15:52:41.134Z,1.02
2018-02-05T15:54:08.293Z,0.98
2018-02-05T15:55:35.238Z,0.97
2018-02-05T15:57:05.392Z,0.96
2018-02-05T15:58:30.380Z,0.95
2018-02-05T15:59:57.507Z,0.96
2018-02-05T16:01:23.717Z,0.98
2018-02-05T16:02:50.727Z,0.95
2018-02-05T16:04:18.844Z,0.94
2018-02-05T16:05:44.985Z,0.95
2018-02-05T16:07:12.039Z,0.95
2018-02-05T16:08:39.140Z,0.94
2018-02-05T16:10:07.056Z,0.96
2018-02-05T16:11:34.121Z,0.94
2018-02-05T16:13:00.276Z,0.93
2018-02-05T16:14:28.724Z,0.95
2018-02-05T16:15:55.490Z,0.95
2018-02-05T16:17:22.527Z,0.96
2018-02-05T16:18:48.870Z,0.95
2018-02-05T16:20:16.876Z,0.95
2018-02-05T16:21:44.100Z,0.94
2018-02-05T16:23:10.163Z,0.92
2018-02-05T16:24:37.299Z,0.92
2018-02-05T16:26:04.539Z,0.89
2018-02-05T16:27:32.431Z,0.88
2018-02-05T16:28:59.742Z,0.86
2018-02-05T16:30:25.747Z,0.86
2018-02-05T16:31:54.006Z,0.84
2018-02-05T16:33:21.107Z,0.83
2018-02-05T16:34:48.325Z,0.81
2018-02-05T16:36:15.537Z,0.78
2018-02-05T16:37:41.723Z,0.75
2018-02-05T16:39:09.867Z,0.73
2018-02-05T16:40:35.717Z,0.70
2018-02-05T16:42:03.789Z,0.68
2018-02-05T16:43:31.084Z,0.68
2018-02-05T16:44:58.137Z,0.68
2018-02-05T16:46:24.241Z,0.65
2018-02-05T16:47:51.491Z,0.64
2018-02-05T16:49:19.338Z,0.63
2018-02-05T16:50:45.632Z,0.61
2018-02-05T16:52:13.794Z,0.58
2018-02-05T16:53:40.901Z,0.57
2018-02-05T16:55:07.629Z,0.55
2018-02-05T16:56:33.905Z,0.55
2018-02-05T16:58:01.186Z,0.53
2018-02-05T16:59:28.415Z,0.54
2018-02-05T17:00:56.712Z,0.54
2018-02-05T17:02:22.694Z,0.50
2018-02-05T17:03:49.586Z,0.46
2018-02-05T17:05:16.785Z,0.46
2018-02-05T17:06:44.912Z,0.45
2018-02-05T17:08:11.869Z,0.45
2018-02-05T17:09:38.943Z,0.45
2018-02-05T17:11:04.964Z,0.44
2018-02-05T17:12:33.170Z,0.44
2018-02-05T17:14:00.105Z,0.44
2018-02-05T17:15:27.185Z,0.43
2018-02-05T17:16:54.394Z,0.43
2018-02-05T17:18:21.436Z,0.43
2018-02-05T17:19:46.240Z,0.41
2018-02-05T17:21:13.420Z,0.41
2018-02-05T17:22:41.479Z,0.41
2018-02-05T17:24:07.547Z,0.41
2018-02-05T17:25:35.458Z,0.41
2018-02-05T17:27:01.640Z,0.41
2018-02-05T17:28:29.558Z,0.40
2018-02-05T17:29:55.698Z,0.40
2018-02-05T17:31:22.846Z,0.39
2018-02-05T17:32:50.940Z,0.39
2018-02-05T17:34:17.126Z,0.39
2018-02-05T17:35:43.754Z,0.39
2018-02-05T17:37:10.764Z,0.39
2018-02-05T17:38:37.635Z,0.39
2018-02-05T17:40:05.671Z,0.39
2018-02-05T17:41:31.918Z,0.38
2018-02-05T17:42:58.966Z,0.39
2018-02-05T17:44:26.102Z,0.39
2018-02-05T17:45:54.370Z,0.38
2018-02-05T17:47:20.441Z,0.37
2018-02-05T17:48:48.327Z,0.36
2018-02-05T17:50:14.196Z,0.35
2018-02-05T17:51:42.300Z,0.35
2018-02-05T17:53:08.165Z,0.35
2018-02-05T17:54:35.243Z,0.34
2018-02-05T17:56:02.458Z,0.32
2018-02-05T17:57:30.627Z,0.30
2018-02-05T17:58:57.833Z,0.30
2018-02-05T18:00:25.000Z,0.29
2018-02-05T18:01:51.217Z,0.28
2018-02-05T18:03:18.383Z,0.26
2018-02-05T18:04:46.276Z,0.25
2018-02-05T18:06:12.315Z,0.26
2018-02-05T18:07:40.204Z,0.26
2018-02-05T18:09:07.358Z,0.26
2018-02-05T18:10:34.349Z,0.27
2018-02-05T18:12:01.457Z,0.28
2018-02-05T18:13:28.625Z,0.26
2018-02-05T18:14:55.601Z,0.25
2018-02-05T18:16:22.842Z,0.24
2018-02-05T18:17:49.644Z,0.24
2018-02-05T18:19:16.853Z,0.23
2018-02-05T18:20:44.009Z,0.22
2018-02-05T18:22:10.553Z,0.20
2018-02-05T18:23:36.428Z,0.19
2018-02-05T18:25:04.468Z,0.18
2018-02-05T18:26:31.668Z,0.18
2018-02-05T18:27:58.846Z,0.17
2018-02-05T18:29:24.901Z,0.14
2018-02-05T18:30:52.440Z,0.12
2018-02-05T18:32:18.581Z,0.11
2018-02-05T18:33:46.463Z,0.09
2018-02-05T18:35:13.387Z,0.07
2018-02-05T18:36:40.540Z,0.06
2018-02-05T18:38:07.155Z,0.05
2018-02-05T18:39:34.000Z,0.05
2018-02-05T18:41:01.041Z,0.07
2018-02-05T18:42:28.073Z,0.07
2018-02-05T18:43:54.116Z,0.06
2018-02-05T18:45:22.243Z,0.06
2018-02-05T18:46:48.250Z,0.07
2018-02-05T18:48:15.591Z,0.11
2018-02-05T18:49:43.541Z,0.15
2018-02-05T18:51:10.681Z,0.23
2018-02-05T18:52:36.898Z,0.30
2018-02-05T18:54:03.866Z,0.29
2018-02-05T18:55:32.008Z,0.25
2018-02-05T18:56:59.134Z,0.22
2018-02-05T18:58:26.276Z,0.20
2018-02-05T18:59:52.640Z,0.16
2018-02-05T19:01:19.696Z,0.10
2018-02-05T19:02:47.841Z,0.06
2018-02-05T19:04:14.987Z,0.02
2018-02-05T19:05:40.876Z,0.01
2018-02-05T19:07:08.000Z,-0.02
2018-02-05T19:08:35.906Z,0.00
2018-02-05T19:10:02.821Z,-0.02
2018-02-05T19:11:29.886Z,-0.04
2018-02-05T19:12:57.029Z,-0.06
2018-02-05T19:14:24.285Z,-0.02
2018-02-05T19:15:50.476Z,-0.02
2018-02-05T19:17:17.552Z,0.01